Time;durP1;ratioP1;P1;durP2;ratioP2;P2;SDS_P1;SDS_P2;PMS_P1;PMS_P2;Temp;Humidity;BMP_temperature;BMP_pressure;BME280_temperature;BME280_humidity;BME280_pressure;Samples;Min_cycle;Max_cycle;Signal;HPM_P1;HPM_P2
2021/09/28 00:00:33;;;;;;;14.60;9.20;;;16.50;99.90;;;;;;4981837;28;20461;-56
2021/09/28 00:03:00;;;;;;;18.07;10.37;;;16.50;99.90;;;;;;4988590;28;20606;-55
2021/09/28 00:05:29;;;;;;;16.30;10.20;;;16.50;99.90;;;;;;5011509;28;20450;-56
2021/09/28 00:07:56;;;;;;;18.80;11.20;;;16.50;99.90;;;;;;5011617;28;20588;-55
2021/09/28 00:10:26;;;;;;;16.87;10.40;;;16.40;99.90;;;;;;4990671;28;20910;-57
2021/09/28 00:12:53;;;;;;;16.70;10.23;;;16.40;99.90;;;;;;4977413;28;21074;-54
2021/09/28 00:15:20;;;;;;;17.50;11.20;;;16.30;99.90;;;;;;4990198;28;20998;-55
2021/09/28 00:17:47;;;;;;;15.90;10.53;;;16.50;99.90;;;;;;4985151;28;20521;-55
2021/09/28 00:20:14;;;;;;;16.37;10.60;;;16.60;99.90;;;;;;4985656;28;20483;-55
2021/09/28 00:22:43;;;;;;;14.83;10.20;;;16.40;99.90;;;;;;4990012;28;20479;-56
2021/09/28 00:25:11;;;;;;;13.67;9.57;;;16.30;99.90;;;;;;4989987;28;20540;-55
2021/09/28 00:27:39;;;;;;;16.00;10.67;;;16.30;99.90;;;;;;4990994;28;20528;-56
2021/09/28 00:30:07;;;;;;;14.83;9.60;;;16.30;99.90;;;;;;4972802;28;21047;-55
2021/09/28 00:32:34;;;;;;;13.90;10.07;;;16.40;99.90;;;;;;4984149;28;20486;-55
2021/09/28 00:35:01;;;;;;;15.30;10.00;;;16.40;99.90;;;;;;4986538;28;20454;-56
2021/09/28 00:37:28;;;;;;;14.03;9.83;;;16.40;99.90;;;;;;4990413;28;20454;-56
2021/09/28 00:39:56;;;;;;;14.00;9.60;;;16.30;99.90;;;;;;4991396;28;20489;-55
2021/09/28 00:42:23;;;;;;;13.03;9.20;;;16.40;99.90;;;;;;4988482;28;20528;-55
2021/09/28 00:44:50;;;;;;;15.40;10.07;;;16.40;99.90;;;;;;4984273;28;20463;-55
2021/09/28 00:47:18;;;;;;;15.00;10.73;;;16.40;99.90;;;;;;4973126;28;21208;-56
2021/09/28 00:49:47;;;;;;;14.10;9.30;;;16.30;99.90;;;;;;4973074;28;20451;-55
2021/09/28 00:52:19;;;;;;;14.20;9.87;;;16.30;99.90;;;;;;4990046;28;20867;-56
2021/09/28 00:54:47;;;;;;;13.40;9.67;;;16.40;99.90;;;;;;4995267;28;20459;-55
2021/09/28 00:57:16;;;;;;;13.70;8.97;;;16.40;99.90;;;;;;4994550;28;20450;-58
2021/09/28 00:59:44;;;;;;;13.30;9.27;;;16.40;99.90;;;;;;4994977;28;20489;-56
2021/09/28 01:02:12;;;;;;;13.90;9.60;;;16.30;99.90;;;;;;4990413;28;20521;-56
2021/09/28 01:04:40;;;;;;;15.50;10.57;;;16.30;99.90;;;;;;4988828;28;20954;-55
2021/09/28 01:07:08;;;;;;;15.80;10.00;;;16.20;99.90;;;;;;4976553;28;20966;-55
2021/09/28 01:09:37;;;;;;;16.87;11.77;;;16.30;99.90;;;;;;4980029;28;20454;-55
2021/09/28 01:12:05;;;;;;;14.40;10.00;;;16.20;99.90;;;;;;4979092;28;20531;-55
2021/09/28 01:14:33;;;;;;;12.90;9.77;;;16.20;99.90;;;;;;4982096;28;20540;-55
2021/09/28 01:17:00;;;;;;;16.10;10.10;;;16.30;99.90;;;;;;4988229;28;20444;-55
2021/09/28 01:19:27;;;;;;;15.90;10.33;;;16.30;99.90;;;;;;4978121;28;20539;-55
2021/09/28 01:21:56;;;;;;;10.97;8.07;;;16.30;99.90;;;;;;4974816;28;20479;-57
2021/09/28 01:24:23;;;;;;;17.27;9.73;;;16.30;99.90;;;;;;4975170;28;20455;-56
2021/09/28 01:26:50;;;;;;;12.63;9.13;;;16.40;99.90;;;;;;4974978;28;20459;-55
2021/09/28 01:29:17;;;;;;;13.03;9.40;;;16.40;99.90;;;;;;4992207;28;20447;-56
2021/09/28 01:31:48;;;;;;;15.70;10.57;;;16.30;99.90;;;;;;4987557;28;20459;-55
2021/09/28 01:34:16;;;;;;;20.97;10.23;;;16.20;99.90;;;;;;4978690;28;20487;-55
2021/09/28 01:36:43;;;;;;;15.37;10.53;;;16.20;99.90;;;;;;4974737;28;20466;-56
2021/09/28 01:39:11;;;;;;;14.07;10.17;;;16.20;99.90;;;;;;4974863;28;20562;-55
2021/09/28 01:41:38;;;;;;;19.33;10.30;;;16.20;99.90;;;;;;4974713;28;20510;-54
2021/09/28 01:44:07;;;;;;;14.60;9.43;;;16.20;99.90;;;;;;4981688;28;20469;-56
2021/09/28 01:46:36;;;;;;;12.70;9.80;;;16.30;99.90;;;;;;4980649;28;21241;-55
2021/09/28 01:49:04;;;;;;;14.03;9.87;;;16.30;99.90;;;;;;4974767;28;20446;-56
2021/09/28 01:51:31;;;;;;;15.80;10.50;;;16.20;99.90;;;;;;4978132;28;21036;-56
2021/09/28 01:53:58;;;;;;;15.00;9.63;;;16.30;99.90;;;;;;4994013;28;20474;-55
2021/09/28 01:56:27;;;;;;;17.80;10.37;;;16.20;99.90;;;;;;4993915;28;20462;-55
2021/09/28 01:58:54;;;;;;;15.60;10.70;;;16.20;99.90;;;;;;4990143;28;20453;-56
2021/09/28 02:01:22;;;;;;;15.10;10.30;;;16.30;99.90;;;;;;4973496;28;20969;-55
2021/09/28 02:03:49;;;;;;;14.20;10.23;;;16.20;99.90;;;;;;4974437;28;20911;-56
2021/09/28 02:06:17;;;;;;;15.10;11.30;;;16.30;99.90;;;;;;4974556;28;20455;-56
2021/09/28 02:08:44;;;;;;;15.60;10.07;;;16.30;99.90;;;;;;4974487;28;20607;-55
2021/09/28 02:11:12;;;;;;;17.47;10.53;;;16.30;99.90;;;;;;4974387;28;20501;-57
2021/09/28 02:13:40;;;;;;;16.20;10.00;;;16.20;99.90;;;;;;4980690;28;20482;-56
2021/09/28 02:16:07;;;;;;;16.43;10.50;;;16.30;99.90;;;;;;4984911;28;20448;-56
2021/09/28 02:18:35;;;;;;;14.80;9.87;;;16.40;99.90;;;;;;4986456;28;20505;-55
2021/09/28 02:21:02;;;;;;;17.00;11.50;;;16.50;99.90;;;;;;4991938;28;20490;-56
2021/09/28 02:23:29;;;;;;;14.57;10.00;;;16.50;99.90;;;;;;4992343;28;20482;-56
2021/09/28 02:25:56;;;;;;;15.10;9.80;;;16.50;99.90;;;;;;4983920;28;20513;-55
2021/09/28 02:28:23;;;;;;;12.90;10.00;;;16.60;99.90;;;;;;4981499;28;20446;-55
2021/09/28 02:30:52;;;;;;;14.40;9.70;;;16.60;99.90;;;;;;4993044;28;20517;-55
2021/09/28 02:33:19;;;;;;;15.10;9.40;;;16.40;99.90;;;;;;4978622;28;20545;-55
2021/09/28 02:35:46;;;;;;;15.60;9.33;;;16.20;99.90;;;;;;4973577;28;20463;-57
2021/09/28 02:38:13;;;;;;;14.53;10.10;;;16.30;99.90;;;;;;4974028;28;20478;-56
2021/09/28 02:40:43;;;;;;;15.80;9.53;;;16.20;99.90;;;;;;4989502;28;20915;-56
2021/09/28 02:43:10;;;;;;;14.43;9.80;;;16.30;99.90;;;;;;4986774;28;20598;-55
2021/09/28 02:45:37;;;;;;;12.47;8.63;;;16.20;99.90;;;;;;4992509;28;20454;-55
2021/09/28 02:48:06;;;;;;;16.60;10.50;;;16.30;99.90;;;;;;4991363;28;20458;-55
2021/09/28 02:50:34;;;;;;;15.13;10.17;;;16.30;99.90;;;;;;4992950;28;20454;-55
2021/09/28 02:53:01;;;;;;;13.40;8.53;;;16.30;99.90;;;;;;4981166;28;20475;-55
2021/09/28 02:55:28;;;;;;;10.70;8.03;;;16.50;99.90;;;;;;4974574;28;20455;-57
2021/09/28 02:57:55;;;;;;;13.97;8.93;;;16.40;99.90;;;;;;4991148;28;20887;-55
2021/09/28 03:00:22;;;;;;;13.43;7.90;;;16.50;99.90;;;;;;4992507;28;20907;-57
2021/09/28 03:02:50;;;;;;;10.27;7.77;;;16.50;99.90;;;;;;4982820;28;20479;-56
2021/09/28 03:05:18;;;;;;;11.57;8.30;;;16.40;99.90;;;;;;4973851;28;20518;-55
2021/09/28 03:07:45;;;;;;;10.47;7.83;;;16.40;99.90;;;;;;4973242;28;21016;-55
2021/09/28 03:10:12;;;;;;;11.80;7.93;;;16.30;99.90;;;;;;4985279;28;20455;-58
2021/09/28 03:12:39;;;;;;;14.97;9.00;;;16.40;99.90;;;;;;4990516;28;20529;-55
2021/09/28 03:15:07;;;;;;;11.33;7.20;;;16.30;99.90;;;;;;4989130;28;20454;-55
2021/09/28 03:17:34;;;;;;;12.40;8.30;;;16.40;99.90;;;;;;4978247;28;20456;-55
2021/09/28 03:20:02;;;;;;;5.90;4.20;;;16.30;99.90;;;;;;4973058;28;20529;-56
2021/09/28 03:22:30;;;;;;;9.23;6.10;;;16.10;99.90;;;;;;4979405;28;21019;-55
2021/09/28 03:24:57;;;;;;;3.60;3.00;;;16.10;99.90;;;;;;4986826;28;20509;-57
2021/09/28 03:27:24;;;;;;;2.73;1.90;;;15.90;99.90;;;;;;4992367;28;20523;-56
2021/09/28 03:29:51;;;;;;;2.10;1.90;;;15.90;99.90;;;;;;4992613;28;20536;-56
2021/09/28 03:32:18;;;;;;;2.30;2.10;;;16.00;99.90;;;;;;4979948;28;22265;-56
2021/09/28 03:34:45;;;;;;;3.33;2.10;;;15.80;99.90;;;;;;4987742;28;20501;-54
2021/09/28 03:37:12;;;;;;;2.30;2.00;;;15.80;99.90;;;;;;4992279;28;20486;-56
2021/09/28 03:39:40;;;;;;;2.23;1.93;;;16.00;99.90;;;;;;4990489;28;20478;-56
2021/09/28 03:42:07;;;;;;;1.97;1.77;;;16.00;99.90;;;;;;4980897;28;20517;-55
2021/09/28 03:44:34;;;;;;;1.77;1.53;;;15.80;99.90;;;;;;4985133;28;20505;-56
2021/09/28 03:47:01;;;;;;;2.60;1.90;;;15.80;99.90;;;;;;4980917;28;20454;-56
2021/09/28 03:49:28;;;;;;;2.50;1.80;;;15.90;99.90;;;;;;4990522;28;20882;-55
2021/09/28 03:51:55;;;;;;;2.07;1.87;;;15.70;99.90;;;;;;4990109;28;20505;-57
2021/09/28 03:54:22;;;;;;;1.67;1.43;;;15.60;99.90;;;;;;4972748;28;20557;-55
2021/09/28 03:56:50;;;;;;;2.53;2.03;;;15.40;99.90;;;;;;5020513;23;20548;-61
2021/09/28 03:59:17;;;;;;;4.20;2.43;;;15.30;99.90;;;;;;5011372;28;20445;-61
2021/09/28 04:01:44;;;;;;;2.50;2.30;;;15.10;99.90;;;;;;5007456;28;20905;-61
2021/09/28 04:04:11;;;;;;;3.03;2.60;;;15.10;99.90;;;;;;4992428;28;20454;-61
2021/09/28 04:06:38;;;;;;;2.27;2.00;;;15.00;99.90;;;;;;4983374;28;20878;-61
2021/09/28 04:09:05;;;;;;;2.37;1.90;;;14.80;99.90;;;;;;4991883;28;20510;-61
2021/09/28 04:11:32;;;;;;;2.57;1.80;;;14.70;99.90;;;;;;4974302;28;20439;-61
2021/09/28 04:14:01;;;;;;;1.30;1.20;;;14.60;99.90;;;;;;4983081;28;20450;-61
2021/09/28 04:16:29;;;;;;;2.23;1.10;;;14.60;99.90;;;;;;4980368;28;20471;-60
2021/09/28 04:18:56;;;;;;;1.20;1.10;;;14.50;99.90;;;;;;4972756;28;20478;-61
2021/09/28 04:21:23;;;;;;;1.27;0.90;;;14.50;99.90;;;;;;4972239;28;20486;-60
2021/09/28 04:23:51;;;;;;;1.10;0.90;;;14.40;99.90;;;;;;4987176;28;20517;-60
2021/09/28 04:26:18;;;;;;;1.03;0.73;;;14.30;99.90;;;;;;4993819;28;21062;-61
2021/09/28 04:28:46;;;;;;;1.03;0.80;;;14.20;99.90;;;;;;4993852;28;20509;-60
2021/09/28 04:31:16;;;;;;;2.23;0.70;;;14.20;99.90;;;;;;4994535;28;20944;-60
2021/09/28 04:33:43;;;;;;;1.30;0.77;;;14.00;99.90;;;;;;4989599;28;20451;-60
2021/09/28 04:36:10;;;;;;;0.80;0.70;;;14.00;99.90;;;;;;4989056;28;20530;-60
2021/09/28 04:38:37;;;;;;;1.60;0.70;;;14.00;99.90;;;;;;4993671;28;20499;-61
2021/09/28 04:41:04;;;;;;;1.10;0.80;;;14.00;99.90;;;;;;4990789;28;20510;-60
2021/09/28 04:43:31;;;;;;;0.70;0.70;;;14.00;99.90;;;;;;4994529;28;20721;-61
2021/09/28 04:45:59;;;;;;;4.03;0.77;;;14.00;99.90;;;;;;4986778;28;20475;-60
2021/09/28 04:48:27;;;;;;;3.33;0.73;;;14.00;99.90;;;;;;4993408;28;20972;-60
2021/09/28 04:50:55;;;;;;;0.90;0.70;;;14.00;99.90;;;;;;4985803;28;20443;-61
2021/09/28 04:53:24;;;;;;;0.97;0.87;;;14.00;99.90;;;;;;4993322;28;20455;-60
2021/09/28 04:55:54;;;;;;;1.80;1.00;;;13.80;99.90;;;;;;4989702;28;20486;-60
2021/09/28 04:58:22;;;;;;;0.80;0.60;;;13.80;99.90;;;;;;4994666;28;20457;-60
2021/09/28 05:00:49;;;;;;;1.20;0.80;;;13.80;99.90;;;;;;4993004;28;20482;-60
2021/09/28 05:03:16;;;;;;;1.13;0.90;;;13.60;99.90;;;;;;4994823;28;20546;-61
2021/09/28 05:05:45;;;;;;;0.60;0.60;;;13.50;99.90;;;;;;4993797;28;20513;-61
2021/09/28 05:08:12;;;;;;;3.33;0.77;;;13.40;99.90;;;;;;4994393;28;20446;-60
2021/09/28 05:10:39;;;;;;;2.33;0.87;;;13.40;99.90;;;;;;4994530;28;20450;-60
2021/09/28 05:13:06;;;;;;;2.10;0.90;;;13.40;99.90;;;;;;4994439;28;20493;-60
2021/09/28 05:15:33;;;;;;;2.13;1.10;;;13.40;99.90;;;;;;4991435;28;20867;-61
2021/09/28 05:18:00;;;;;;;2.17;1.20;;;13.40;99.90;;;;;;4993289;28;20458;-60
2021/09/28 05:20:27;;;;;;;1.03;1.03;;;13.40;99.90;;;;;;4993461;28;20561;-60
2021/09/28 05:22:56;;;;;;;1.43;1.03;;;13.40;99.90;;;;;;4993817;28;20513;-61
2021/09/28 05:25:27;;;;;;;2.50;0.90;;;13.50;99.90;;;;;;4993451;28;20455;-61
2021/09/28 05:27:54;;;;;;;1.30;0.90;;;13.50;99.90;;;;;;4993019;28;20478;-61
2021/09/28 05:30:24;;;;;;;1.20;1.10;;;13.50;99.90;;;;;;4993757;28;20945;-61
2021/09/28 05:32:51;;;;;;;2.20;1.10;;;13.50;99.90;;;;;;4992975;28;20451;-61
2021/09/28 05:35:18;;;;;;;3.37;1.10;;;13.40;99.90;;;;;;4993798;28;20450;-60
2021/09/28 05:37:45;;;;;;;1.00;0.90;;;13.30;99.90;;;;;;4993744;28;20458;-60
2021/09/28 05:40:13;;;;;;;2.40;1.00;;;13.30;99.90;;;;;;4993740;28;20461;-60
2021/09/28 05:42:40;;;;;;;1.37;1.13;;;13.30;99.90;;;;;;4992772;28;20474;-61
2021/09/28 05:45:09;;;;;;;1.50;1.00;;;13.40;99.90;;;;;;4992814;28;20513;-61
2021/09/28 05:47:36;;;;;;;1.43;0.90;;;13.60;99.90;;;;;;4985773;28;20890;-61
2021/09/28 05:50:04;;;;;;;1.00;0.90;;;13.60;99.90;;;;;;4993813;28;20459;-61
2021/09/28 05:52:32;;;;;;;1.30;1.07;;;13.50;99.90;;;;;;4993270;28;20454;-60
2021/09/28 05:55:01;;;;;;;1.03;0.97;;;13.60;99.90;;;;;;4993791;28;20815;-60
2021/09/28 05:57:30;;;;;;;1.80;1.20;;;13.60;99.90;;;;;;4992806;28;21008;-60
2021/09/28 05:59:57;;;;;;;2.20;0.80;;;13.70;99.90;;;;;;4993896;28;20521;-59
2021/09/28 06:02:24;;;;;;;4.00;0.90;;;13.70;99.90;;;;;;4984738;28;20495;-61
2021/09/28 06:04:51;;;;;;;2.03;1.00;;;13.90;99.90;;;;;;4992474;28;20454;-61
2021/09/28 06:07:18;;;;;;;1.73;0.93;;;14.00;99.90;;;;;;4993638;28;21038;-60
2021/09/28 06:09:46;;;;;;;1.93;1.20;;;14.00;99.90;;;;;;4993538;28;20458;-61
2021/09/28 06:12:14;;;;;;;2.10;1.03;;;14.10;99.90;;;;;;4991228;28;20446;-60
2021/09/28 06:14:43;;;;;;;1.07;0.80;;;14.20;99.90;;;;;;4991483;28;20513;-61
2021/09/28 06:17:11;;;;;;;1.53;1.07;;;14.20;99.90;;;;;;4980441;28;20468;-61
2021/09/28 06:19:38;;;;;;;2.57;1.10;;;14.30;99.90;;;;;;4974034;28;20456;-60
2021/09/28 06:22:06;;;;;;;1.83;1.10;;;14.40;99.90;;;;;;4992438;28;20485;-60
2021/09/28 06:24:34;;;;;;;1.67;1.33;;;14.50;99.90;;;;;;4987917;28;20455;-60
2021/09/28 06:27:01;;;;;;;2.17;1.20;;;14.40;99.90;;;;;;4973753;28;20486;-60
2021/09/28 06:29:28;;;;;;;2.20;1.00;;;14.40;99.90;;;;;;4991678;28;20580;-62
2021/09/28 06:31:57;;;;;;;1.20;1.10;;;14.40;99.90;;;;;;4988187;28;20450;-60
2021/09/28 06:34:24;;;;;;;1.50;1.37;;;14.40;99.90;;;;;;4978723;28;20455;-60
2021/09/28 06:36:52;;;;;;;2.77;1.63;;;14.30;99.90;;;;;;4976882;28;20490;-60
2021/09/28 06:39:19;;;;;;;3.60;2.10;;;14.30;99.90;;;;;;4993069;28;20508;-61
2021/09/28 06:41:46;;;;;;;1.80;1.30;;;14.40;99.90;;;;;;4992343;28;20478;-59
2021/09/28 06:44:13;;;;;;;4.27;2.40;;;14.40;99.90;;;;;;4983507;28;20455;-60
2021/09/28 06:46:40;;;;;;;6.23;2.67;;;14.30;99.90;;;;;;4981286;28;20478;-59
2021/09/28 06:49:08;;;;;;;3.53;2.40;;;14.20;99.90;;;;;;4974616;28;20459;-60
2021/09/28 06:51:35;;;;;;;4.90;3.10;;;14.30;99.90;;;;;;4989088;28;22099;-60
2021/09/28 06:54:02;;;;;;;3.90;2.73;;;14.30;99.90;;;;;;4992245;28;20455;-60
2021/09/28 06:56:31;;;;;;;3.83;2.07;;;14.40;99.90;;;;;;4992386;28;20482;-60
2021/09/28 06:58:58;;;;;;;1.60;1.40;;;14.30;99.90;;;;;;4992751;28;20520;-60
2021/09/28 07:01:25;;;;;;;3.73;1.67;;;14.30;99.90;;;;;;4991774;28;20569;-60
2021/09/28 07:03:52;;;;;;;4.17;2.07;;;14.20;99.90;;;;;;4991994;28;20450;-60
2021/09/28 07:06:22;;;;;;;1.70;1.10;;;14.30;99.90;;;;;;4992661;28;20481;-60
2021/09/28 07:08:50;;;;;;;1.90;1.47;;;14.30;99.90;;;;;;4992512;28;20482;-60
2021/09/28 07:11:19;;;;;;;1.30;1.03;;;14.40;99.90;;;;;;4991990;28;21026;-59
2021/09/28 07:13:46;;;;;;;2.10;1.27;;;14.50;99.90;;;;;;4991398;28;20450;-59
2021/09/28 07:16:14;;;;;;;2.03;1.40;;;14.60;99.90;;;;;;4991999;28;20521;-59
2021/09/28 07:18:41;;;;;;;1.80;1.47;;;14.60;99.90;;;;;;4992259;28;20458;-59
2021/09/28 07:21:09;;;;;;;1.97;1.60;;;14.70;99.90;;;;;;4991866;28;20478;-60
2021/09/28 07:23:38;;;;;;;1.23;1.07;;;14.90;99.90;;;;;;4991675;28;20455;-60
2021/09/28 07:26:06;;;;;;;2.87;1.53;;;14.90;99.90;;;;;;4992526;28;20537;-59
2021/09/28 07:28:33;;;;;;;4.00;1.60;;;15.10;99.90;;;;;;4992483;28;20450;-59
2021/09/28 07:31:00;;;;;;;2.67;1.37;;;15.20;99.90;;;;;;4992072;28;20454;-59
2021/09/28 07:33:27;;;;;;;1.77;1.23;;;15.20;99.90;;;;;;4973839;28;20459;-59
2021/09/28 07:35:54;;;;;;;1.80;1.10;;;15.30;99.90;;;;;;4972656;28;20467;-59
2021/09/28 07:38:21;;;;;;;1.97;1.30;;;15.40;99.90;;;;;;4972994;28;20506;-59
2021/09/28 07:40:51;;;;;;;3.57;1.10;;;15.40;99.90;;;;;;4972706;28;20448;-59
2021/09/28 07:43:19;;;;;;;1.93;1.40;;;15.40;99.90;;;;;;4989524;28;20545;-60
2021/09/28 07:45:46;;;;;;;1.73;1.40;;;15.60;99.90;;;;;;4992159;28;20478;-58
2021/09/28 07:48:14;;;;;;;2.73;1.30;;;15.80;99.90;;;;;;4992177;28;20450;-59
2021/09/28 07:50:41;;;;;;;2.60;1.27;;;15.70;99.90;;;;;;4992078;28;20430;-60
2021/09/28 07:53:08;;;;;;;2.20;1.60;;;15.80;99.90;;;;;;4976526;28;21020;-59
2021/09/28 07:55:36;;;;;;;1.40;1.30;;;15.60;99.90;;;;;;4972433;28;20479;-60
2021/09/28 07:58:05;;;;;;;2.03;1.40;;;15.80;99.90;;;;;;4972483;28;20506;-60
2021/09/28 08:00:32;;;;;;;1.50;1.40;;;15.90;99.90;;;;;;4976367;28;20725;-60
2021/09/28 08:02:59;;;;;;;1.77;1.50;;;15.80;99.90;;;;;;4990275;28;20485;-59
2021/09/28 08:05:28;;;;;;;1.53;1.30;;;15.50;99.90;;;;;;4995919;28;20531;-59
2021/09/28 08:07:55;;;;;;;2.53;2.00;;;15.20;99.90;;;;;;4995084;28;20933;-59
2021/09/28 08:10:22;;;;;;;3.60;1.60;;;15.00;99.90;;;;;;4995094;28;20936;-59
2021/09/28 08:12:49;;;;;;;3.70;1.60;;;15.10;99.90;;;;;;4983385;28;20452;-59
2021/09/28 08:15:18;;;;;;;2.30;1.80;;;15.00;99.90;;;;;;4976521;28;21008;-59
2021/09/28 08:17:44;;;;;;;2.73;2.40;;;15.20;99.90;;;;;;4976622;28;20451;-59
2021/09/28 08:20:16;;;;;;;2.53;1.50;;;15.40;99.90;;;;;;4976436;28;20481;-59
2021/09/28 08:22:43;;;;;;;2.50;1.20;;;15.50;99.90;;;;;;4987165;28;20577;-59
2021/09/28 08:25:13;;;;;;;4.50;1.23;;;15.20;99.90;;;;;;4995599;28;20454;-59
2021/09/28 08:30:29;;;;;;;1.80;1.50;;;15.50;99.90;;;;;;4991152;28;20482;-59
2021/09/28 08:32:56;;;;;;;1.10;0.93;;;15.80;99.90;;;;;;4995511;28;20199;-59
2021/09/28 08:35:23;;;;;;;1.97;1.07;;;16.20;99.90;;;;;;4995991;28;20461;-59
2021/09/28 08:37:51;;;;;;;1.10;1.00;;;16.50;99.90;;;;;;4998342;28;20445;-59
2021/09/28 08:40:19;;;;;;;1.80;1.20;;;16.80;99.90;;;;;;5004714;28;20510;-60
2021/09/28 08:42:47;;;;;;;2.60;1.60;;;17.60;99.90;;;;;;4989486;28;20905;-59
2021/09/28 08:45:14;;;;;;;2.37;1.20;;;17.80;99.90;;;;;;4996570;28;20442;-59
2021/09/28 08:47:44;;;;;;;1.10;1.00;;;18.10;99.90;;;;;;5001578;28;20597;-59
2021/09/28 08:50:14;;;;;;;1.00;0.77;;;19.00;99.90;;;;;;4991286;28;20455;-60
2021/09/28 08:52:43;;;;;;;1.50;0.70;;;19.10;99.90;;;;;;4975998;28;20599;-58
2021/09/28 08:55:11;;;;;;;0.90;0.80;;;18.90;99.90;;;;;;4975612;28;20455;-58
2021/09/28 08:57:39;;;;;;;1.00;0.90;;;18.70;99.90;;;;;;4975748;28;20502;-58
2021/09/28 09:00:22;;;;;;;0.93;0.83;;;18.10;99.90;;;;;;4977694;28;20466;-59
2021/09/28 09:02:51;;;;;;;0.77;0.77;;;18.00;99.90;;;;;;4995066;28;20485;-59
2021/09/28 09:05:19;;;;;;;1.60;0.80;;;18.00;99.90;;;;;;4995030;28;20505;-59
2021/09/28 09:07:58;;;;;;;1.70;1.13;;;18.20;99.90;;;;;;4994911;28;20457;-59
2021/09/28 09:10:30;;;;;;;1.10;0.90;;;18.50;99.90;;;;;;4988822;28;20950;-60
2021/09/28 09:12:57;;;;;;;0.80;0.80;;;17.70;99.90;;;;;;4975352;28;20861;-59
2021/09/28 09:15:29;;;;;;;1.20;1.10;;;17.50;99.90;;;;;;4975380;28;20451;-59
2021/09/28 09:18:00;;;;;;;1.23;1.10;;;17.30;99.90;;;;;;4975517;28;20822;-60
2021/09/28 09:20:32;;;;;;;3.80;1.10;;;16.90;99.90;;;;;;4979280;28;21335;-59
2021/09/28 09:23:16;;;;;;;1.10;1.00;;;17.00;99.90;;;;;;4993486;28;20528;-59
2021/09/28 09:25:43;;;;;;;1.20;1.10;;;17.30;99.90;;;;;;4993443;28;20483;-59
2021/09/28 09:28:23;;;;;;;1.40;0.93;;;17.30;99.90;;;;;;4994598;28;20454;-59
2021/09/28 09:30:52;;;;;;;2.20;1.20;;;17.70;99.90;;;;;;4986264;28;20455;-59
2021/09/28 09:33:26;;;;;;;1.67;1.30;;;17.60;99.90;;;;;;4974912;28;20514;-59
2021/09/28 09:36:00;;;;;;;1.17;1.07;;;17.70;99.90;;;;;;4974745;28;20545;-60
2021/09/28 09:38:27;;;;;;;1.93;1.40;;;17.70;99.90;;;;;;4978131;28;20486;-60
2021/09/28 09:40:54;;;;;;;3.43;1.40;;;17.30;99.90;;;;;;4990364;28;20519;-59
2021/09/28 09:43:30;;;;;;;1.17;0.90;;;17.30;99.90;;;;;;4993347;28;20508;-60
2021/09/28 09:46:08;;;;;;;1.83;1.10;;;17.10;99.90;;;;;;4993926;28;20470;-60
2021/09/28 09:48:38;;;;;;;3.20;1.20;;;16.80;99.90;;;;;;4994272;28;20454;-59
2021/09/28 09:51:07;;;;;;;1.70;1.13;;;16.80;99.90;;;;;;4993172;28;20458;-59
2021/09/28 09:53:35;;;;;;;1.50;1.20;;;16.60;99.90;;;;;;4994031;28;20497;-59
2021/09/28 09:56:03;;;;;;;2.33;1.20;;;16.50;99.90;;;;;;5015904;23;20560;-53
2021/09/28 09:58:30;;;;;;;2.03;1.10;;;16.50;99.90;;;;;;4994017;28;20521;-52
2021/09/28 10:00:58;;;;;;;0.90;0.90;;;16.50;99.90;;;;;;4992850;28;20529;-53
2021/09/28 10:03:25;;;;;;;1.97;1.43;;;16.70;99.90;;;;;;4993610;28;20914;-53
2021/09/28 10:05:54;;;;;;;1.67;1.10;;;17.00;99.90;;;;;;4993696;28;20555;-53
2021/09/28 10:08:21;;;;;;;1.47;1.37;;;17.00;99.90;;;;;;4993489;28;20447;-53
2021/09/28 10:10:56;;;;;;;3.10;1.20;;;17.00;99.90;;;;;;4991806;28;20455;-53
2021/09/28 10:13:45;;;;;;;2.00;1.13;;;16.90;99.90;;;;;;4981631;28;20875;-53
2021/09/28 10:16:33;;;;;;;1.20;1.10;;;16.80;99.90;;;;;;4993788;28;20478;-53
2021/09/28 10:19:01;;;;;;;3.60;1.37;;;16.90;99.90;;;;;;4993363;28;20454;-53
2021/09/28 10:21:42;;;;;;;1.70;1.60;;;17.10;99.90;;;;;;4992535;28;20455;-53
2021/09/28 10:24:29;;;;;;;1.40;1.30;;;17.00;99.90;;;;;;4992967;28;20486;-53
2021/09/28 10:27:29;;;;;;;2.60;1.40;;;17.10;99.90;;;;;;4993171;28;20525;-52
2021/09/28 10:29:56;;;;;;;1.63;1.50;;;17.10;99.90;;;;;;4992900;28;20478;-53
2021/09/28 10:32:48;;;;;;;1.57;1.47;;;17.10;99.90;;;;;;4978129;28;20530;-52
2021/09/28 10:35:18;;;;;;;2.03;1.40;;;16.90;99.90;;;;;;4992089;28;20513;-53
2021/09/28 10:37:55;;;;;;;2.00;1.57;;;16.80;99.90;;;;;;4992889;28;20506;-53
2021/09/28 10:40:50;;;;;;;1.97;1.67;;;16.70;99.90;;;;;;4992800;28;21089;-53
2021/09/28 10:43:29;;;;;;;2.30;2.00;;;16.50;99.90;;;;;;4988164;28;20474;-52
2021/09/28 10:45:57;;;;;;;1.80;1.70;;;16.20;99.90;;;;;;4973395;28;20829;-52
2021/09/28 10:48:36;;;;;;;4.03;2.17;;;16.00;99.90;;;;;;4973600;28;20458;-52
2021/09/28 10:51:08;;;;;;;2.80;2.40;;;16.00;99.90;;;;;;4973202;28;20451;-52
2021/09/28 10:53:37;;;;;;;4.57;2.90;;;16.10;99.90;;;;;;4973428;28;20482;-53
2021/09/28 10:56:07;;;;;;;2.80;2.60;;;16.10;99.90;;;;;;4985843;28;20486;-52
2021/09/28 10:58:51;;;;;;;3.53;3.00;;;16.10;99.90;;;;;;4992280;28;20458;-53
2021/09/28 11:01:18;;;;;;;2.80;2.60;;;16.00;99.90;;;;;;4988366;28;20534;-53
2021/09/28 11:04:05;;;;;;;6.83;2.80;;;16.00;99.90;;;;;;4992687;28;20490;-53
2021/09/28 11:07:01;;;;;;;4.13;2.90;;;15.90;99.90;;;;;;4990975;28;21004;-53
2021/09/28 11:09:51;;;;;;;2.60;2.40;;;16.00;99.90;;;;;;4984631;28;20458;-53
2021/09/28 11:12:19;;;;;;;3.60;2.10;;;16.00;99.90;;;;;;4992258;28;20446;-52
2021/09/28 11:14:46;;;;;;;3.23;2.40;;;16.30;99.90;;;;;;4992531;28;20454;-52
2021/09/28 11:17:19;;;;;;;3.70;2.10;;;16.40;99.90;;;;;;4992215;28;20481;-53
2021/09/28 11:19:47;;;;;;;2.90;2.30;;;16.50;99.90;;;;;;4991525;28;20542;-52
2021/09/28 11:22:23;;;;;;;4.63;2.63;;;16.30;99.90;;;;;;4992097;28;20492;-53
2021/09/28 11:24:52;;;;;;;4.03;2.40;;;16.20;99.90;;;;;;4992473;28;20454;-53
2021/09/28 11:27:19;;;;;;;3.17;2.30;;;16.20;99.90;;;;;;4992274;28;20466;-53
2021/09/28 11:29:46;;;;;;;2.60;2.40;;;16.20;99.90;;;;;;4991242;28;20454;-53
2021/09/28 11:32:15;;;;;;;2.90;2.57;;;16.10;99.90;;;;;;4992227;28;20447;-53
2021/09/28 11:34:43;;;;;;;3.67;3.33;;;16.10;99.90;;;;;;4992131;28;20452;-52
2021/09/28 11:37:10;;;;;;;4.00;2.90;;;15.90;99.90;;;;;;4992082;28;20474;-53
2021/09/28 11:39:41;;;;;;;2.87;2.40;;;15.80;99.90;;;;;;4991061;28;21043;-53
2021/09/28 11:42:11;;;;;;;3.10;2.67;;;15.90;99.90;;;;;;4991688;28;20490;-54
2021/09/28 11:44:47;;;;;;;4.33;3.17;;;16.00;99.90;;;;;;4992286;28;20528;-53
2021/09/28 11:47:17;;;;;;;4.87;3.30;;;16.00;99.90;;;;;;4992204;28;20520;-53
2021/09/28 11:49:56;;;;;;;4.03;3.23;;;16.00;99.90;;;;;;4991112;28;20455;-54
2021/09/28 11:52:23;;;;;;;6.37;3.50;;;16.10;99.90;;;;;;4991883;28;20438;-54
2021/09/28 11:54:51;;;;;;;4.53;3.90;;;16.30;99.90;;;;;;4991536;28;20948;-53
2021/09/28 11:57:21;;;;;;;4.30;3.50;;;16.10;99.90;;;;;;4990704;28;20536;-53
2021/09/28 11:59:49;;;;;;;4.40;3.50;;;16.20;99.90;;;;;;4984823;28;20514;-53
2021/09/28 12:02:19;;;;;;;5.40;3.50;;;16.50;99.90;;;;;;4980740;28;20541;-54
2021/09/28 12:05:23;;;;;;;4.80;3.80;;;16.60;99.90;;;;;;4972831;28;20455;-53
2021/09/28 12:07:58;;;;;;;4.70;3.90;;;16.50;99.90;;;;;;4972139;28;20842;-53
2021/09/28 12:10:25;;;;;;;6.33;3.83;;;16.50;99.90;;;;;;4973381;28;20546;-53
2021/09/28 12:12:53;;;;;;;3.90;3.50;;;16.80;99.90;;;;;;4972491;28;20443;-53
2021/09/28 12:15:21;;;;;;;4.00;3.43;;;17.10;99.90;;;;;;4990956;28;20450;-54
2021/09/28 12:17:49;;;;;;;5.57;4.43;;;17.20;99.90;;;;;;4991501;28;20528;-53
2021/09/28 12:20:19;;;;;;;5.33;4.47;;;17.30;99.90;;;;;;4990427;28;20455;-53
2021/09/28 12:22:48;;;;;;;4.53;3.80;;;17.20;99.90;;;;;;4991790;28;20486;-53
2021/09/28 12:25:19;;;;;;;7.70;4.43;;;17.30;99.90;;;;;;4991704;28;20461;-53
2021/09/28 12:27:55;;;;;;;5.00;4.07;;;17.50;99.90;;;;;;4991646;28;20506;-53
2021/09/28 12:30:24;;;;;;;6.73;4.03;;;17.40;99.90;;;;;;4990665;28;20454;-53
2021/09/28 12:32:52;;;;;;;7.73;4.00;;;17.50;99.90;;;;;;4991959;28;20450;-53
2021/09/28 12:35:30;;;;;;;5.10;4.33;;;17.70;99.90;;;;;;4991303;28;21007;-53
2021/09/28 12:38:01;;;;;;;7.50;5.40;;;17.80;99.90;;;;;;4991356;28;20616;-54
2021/09/28 12:40:31;;;;;;;7.00;4.83;;;17.70;99.90;;;;;;4981627;28;20466;-53
2021/09/28 12:43:07;;;;;;;6.40;5.10;;;17.50;99.90;;;;;;4972201;28;20483;-53
2021/09/28 12:45:46;;;;;;;5.60;4.30;;;17.70;99.90;;;;;;4972778;28;20912;-53
2021/09/28 12:48:14;;;;;;;6.33;5.23;;;17.80;99.90;;;;;;4984977;28;20450;-53
2021/09/28 12:50:43;;;;;;;6.10;4.80;;;18.00;99.90;;;;;;4994058;28;20516;-53
2021/09/28 12:53:12;;;;;;;6.50;5.03;;;17.80;99.90;;;;;;4987602;28;20451;-54
2021/09/28 12:55:41;;;;;;;6.93;5.10;;;17.60;99.90;;;;;;4989901;28;20450;-54